sensor_id;sensor_type;location;lat;lon;timestamp;pressure;altitude;pressure_sealevel;temperature;humidity
16094;BME280;8151;47.824;12.092;2023-06-24T00:02:02;97186.78;;;19.45;67.32
16094;BME280;8151;47.824;12.092;2023-06-24T00:04:31;97183.69;;;19.55;67.28
16094;BME280;8151;47.824;12.092;2023-06-24T00:07:00;97183.91;;;19.60;67.02
16094;BME280;8151;47.824;12.092;2023-06-24T00:09:32;97181.03;;;19.62;66.92
16094;BME280;8151;47.824;12.092;2023-06-24T00:12:02;97179.56;;;19.59;66.95
16094;BME280;8151;47.824;12.092;2023-06-24T00:14:30;97184.31;;;19.51;67.12
16094;BME280;8151;47.824;12.092;2023-06-24T00:16:59;97176.66;;;19.47;67.39
16094;BME280;8151;47.824;12.092;2023-06-24T00:19:27;97178.09;;;19.50;67.14
16094;BME280;8151;47.824;12.092;2023-06-24T00:21:56;97177.91;;;19.52;66.83
16094;BME280;8151;47.824;12.092;2023-06-24T00:24:27;97168.63;;;19.41;67.28
16094;BME280;8151;47.824;12.092;2023-06-24T00:26:58;97163.66;;;19.31;67.27
16094;BME280;8151;47.824;12.092;2023-06-24T00:29:26;97172.50;;;19.25;67.55
16094;BME280;8151;47.824;12.092;2023-06-24T00:31:54;97165.69;;;19.16;67.96
16094;BME280;8151;47.824;12.092;2023-06-24T00:34:23;97157.59;;;19.02;68.35
16094;BME280;8151;47.824;12.092;2023-06-24T00:36:52;97164.78;;;18.95;68.95
16094;BME280;8151;47.824;12.092;2023-06-24T00:39:21;97161.50;;;19.00;69.01
16094;BME280;8151;47.824;12.092;2023-06-24T00:41:51;97160.28;;;19.09;68.67
16094;BME280;8151;47.824;12.092;2023-06-24T00:44:21;97159.47;;;19.08;68.57
16094;BME280;8151;47.824;12.092;2023-06-24T00:46:50;97156.78;;;19.02;68.89
16094;BME280;8151;47.824;12.092;2023-06-24T00:49:18;97160.03;;;18.97;69.13
16094;BME280;8151;47.824;12.092;2023-06-24T00:51:47;97144.78;;;18.91;69.47
16094;BME280;8151;47.824;12.092;2023-06-24T00:54:18;97137.97;;;18.88;69.46
16094;BME280;8151;47.824;12.092;2023-06-24T00:56:51;97139.78;;;18.88;69.55
16094;BME280;8151;47.824;12.092;2023-06-24T00:59:23;97127.81;;;18.84;69.75
16094;BME280;8151;47.824;12.092;2023-06-24T01:01:52;97130.28;;;18.79;69.93
16094;BME280;8151;47.824;12.092;2023-06-24T01:04:21;97124.91;;;18.79;69.98
16094;BME280;8151;47.824;12.092;2023-06-24T01:06:52;97117.06;;;18.77;69.95
16094;BME280;8151;47.824;12.092;2023-06-24T01:09:21;97115.19;;;18.78;69.87
16094;BME280;8151;47.824;12.092;2023-06-24T01:11:50;97111.25;;;18.67;70.08
16094;BME280;8151;47.824;12.092;2023-06-24T01:14:18;97116.81;;;18.65;70.11
16094;BME280;8151;47.824;12.092;2023-06-24T01:16:58;97112.66;;;18.63;70.46
16094;BME280;8151;47.824;12.092;2023-06-24T01:19:51;97106.72;;;18.67;70.62
16094;BME280;8151;47.824;12.092;2023-06-24T01:22:55;97102.38;;;18.66;70.31
16094;BME280;8151;47.824;12.092;2023-06-24T01:25:36;97104.22;;;18.59;70.49
16094;BME280;8151;47.824;12.092;2023-06-24T01:28:32;97103.22;;;18.67;70.67
16094;BME280;8151;47.824;12.092;2023-06-24T01:31:21;97109.78;;;18.64;70.46
16094;BME280;8151;47.824;12.092;2023-06-24T01:33:59;97105.47;;;18.63;70.55
16094;BME280;8151;47.824;12.092;2023-06-24T01:36:30;97100.75;;;18.65;70.46
16094;BME280;8151;47.824;12.092;2023-06-24T01:39:04;97107.97;;;18.78;69.74
16094;BME280;8151;47.824;12.092;2023-06-24T01:41:39;97108.41;;;18.75;70.01
16094;BME280;8151;47.824;12.092;2023-06-24T01:44:10;97117.09;;;18.84;69.81
16094;BME280;8151;47.824;12.092;2023-06-24T01:46:44;97112.59;;;18.84;69.72
16094;BME280;8151;47.824;12.092;2023-06-24T01:49:15;97110.31;;;18.88;69.80
16094;BME280;8151;47.824;12.092;2023-06-24T01:51:46;97107.00;;;18.86;69.84
16094;BME280;8151;47.824;12.092;2023-06-24T01:54:17;97113.22;;;18.86;70.07
16094;BME280;8151;47.824;12.092;2023-06-24T01:56:48;97112.53;;;18.78;69.93
16094;BME280;8151;47.824;12.092;2023-06-24T01:59:18;97114.34;;;18.70;70.20
16094;BME280;8151;47.824;12.092;2023-06-24T02:01:50;97111.25;;;18.67;70.26
16094;BME280;8151;47.824;12.092;2023-06-24T02:04:20;97117.41;;;18.61;70.34
16094;BME280;8151;47.824;12.092;2023-06-24T02:06:51;97118.81;;;18.50;70.63
16094;BME280;8151;47.824;12.092;2023-06-24T02:09:22;97120.03;;;18.47;70.89
16094;BME280;8151;47.824;12.092;2023-06-24T02:11:52;97123.75;;;18.46;70.70
16094;BME280;8151;47.824;12.092;2023-06-24T02:14:21;97133.84;;;18.51;70.68
16094;BME280;8151;47.824;12.092;2023-06-24T02:17:05;97136.78;;;18.56;70.40
16094;BME280;8151;47.824;12.092;2023-06-24T02:19:44;97131.22;;;18.58;70.30
16094;BME280;8151;47.824;12.092;2023-06-24T02:22:13;97135.13;;;18.55;70.47
16094;BME280;8151;47.824;12.092;2023-06-24T02:24:43;97127.50;;;18.52;70.54
16094;BME280;8151;47.824;12.092;2023-06-24T02:27:12;97123.75;;;18.53;70.66
16094;BME280;8151;47.824;12.092;2023-06-24T02:29:41;97125.88;;;18.58;70.73
16094;BME280;8151;47.824;12.092;2023-06-24T02:32:11;97132.03;;;18.58;70.77
16094;BME280;8151;47.824;12.092;2023-06-24T02:34:40;97130.81;;;18.61;70.54
16094;BME280;8151;47.824;12.092;2023-06-24T02:37:08;97128.75;;;18.56;70.86
16094;BME280;8151;47.824;12.092;2023-06-24T02:39:37;97128.94;;;18.55;70.84
16094;BME280;8151;47.824;12.092;2023-06-24T02:42:11;97137.78;;;18.55;70.68
16094;BME280;8151;47.824;12.092;2023-06-24T02:44:40;97128.13;;;18.54;70.77
16094;BME280;8151;47.824;12.092;2023-06-24T02:47:11;97136.78;;;18.56;70.74
16094;BME280;8151;47.824;12.092;2023-06-24T02:49:42;97142.75;;;18.58;70.80
16094;BME280;8151;47.824;12.092;2023-06-24T02:52:13;97147.75;;;18.61;70.45
16094;BME280;8151;47.824;12.092;2023-06-24T02:54:43;97140.94;;;18.65;70.46
16094;BME280;8151;47.824;12.092;2023-06-24T02:57:12;97140.34;;;18.70;70.52
16094;BME280;8151;47.824;12.092;2023-06-24T02:59:43;97139.50;;;18.69;70.50
16094;BME280;8151;47.824;12.092;2023-06-24T03:02:12;97146.13;;;18.67;70.46
16094;BME280;8151;47.824;12.092;2023-06-24T03:04:41;97143.84;;;18.70;70.46
16094;BME280;8151;47.824;12.092;2023-06-24T03:07:10;97140.38;;;18.77;70.21
16094;BME280;8151;47.824;12.092;2023-06-24T03:09:40;97145.59;;;18.85;70.00
16094;BME280;8151;47.824;12.092;2023-06-24T03:12:09;97151.97;;;18.84;70.01
16094;BME280;8151;47.824;12.092;2023-06-24T03:14:37;97158.09;;;18.78;70.03
16094;BME280;8151;47.824;12.092;2023-06-24T03:17:06;97156.47;;;18.77;70.18
16094;BME280;8151;47.824;12.092;2023-06-24T03:19:37;97159.13;;;18.77;70.20
16094;BME280;8151;47.824;12.092;2023-06-24T03:22:05;97165.78;;;18.81;70.12
16094;BME280;8151;47.824;12.092;2023-06-24T03:24:34;97162.44;;;18.79;70.09
16094;BME280;8151;47.824;12.092;2023-06-24T03:27:02;97169.88;;;18.77;70.05
16094;BME280;8151;47.824;12.092;2023-06-24T03:29:31;97165.56;;;18.82;69.77
16094;BME280;8151;47.824;12.092;2023-06-24T03:31:59;97176.72;;;18.86;69.52
16094;BME280;8151;47.824;12.092;2023-06-24T03:34:28;97167.66;;;18.87;69.34
16094;BME280;8151;47.824;12.092;2023-06-24T03:36:58;97159.41;;;18.88;69.01
16094;BME280;8151;47.824;12.092;2023-06-24T03:39:26;97163.75;;;18.89;68.85
16094;BME280;8151;47.824;12.092;2023-06-24T03:41:55;97168.66;;;18.86;69.08
16094;BME280;8151;47.824;12.092;2023-06-24T03:44:24;97177.75;;;18.85;69.27
16094;BME280;8151;47.824;12.092;2023-06-24T03:46:53;97184.13;;;18.84;69.08
16094;BME280;8151;47.824;12.092;2023-06-24T03:49:21;97177.13;;;18.83;69.03
16094;BME280;8151;47.824;12.092;2023-06-24T03:51:50;97184.47;;;18.74;69.21
16094;BME280;8151;47.824;12.092;2023-06-24T03:54:19;97187.16;;;18.67;69.56
16094;BME280;8151;47.824;12.092;2023-06-24T03:56:48;97189.00;;;18.67;69.63
16094;BME280;8151;47.824;12.092;2023-06-24T03:59:16;97193.94;;;18.70;69.75
16094;BME280;8151;47.824;12.092;2023-06-24T04:01:45;97187.56;;;18.71;69.49
16094;BME280;8151;47.824;12.092;2023-06-24T04:04:13;97195.00;;;18.69;69.53
16094;BME280;8151;47.824;12.092;2023-06-24T04:06:42;97191.88;;;18.65;69.52
16094;BME280;8151;47.824;12.092;2023-06-24T04:09:10;97195.13;;;18.61;69.75
16094;BME280;8151;47.824;12.092;2023-06-24T04:11:40;97196.19;;;18.60;69.82
16094;BME280;8151;47.824;12.092;2023-06-24T04:14:08;97195.97;;;18.61;69.80
16094;BME280;8151;47.824;12.092;2023-06-24T04:16:37;97189.00;;;18.67;69.58
16094;BME280;8151;47.824;12.092;2023-06-24T04:19:05;97199.50;;;18.68;69.43
16094;BME280;8151;47.824;12.092;2023-06-24T04:21:33;97198.88;;;18.66;69.45
16094;BME280;8151;47.824;12.092;2023-06-24T04:24:02;97200.75;;;18.66;69.50
16094;BME280;8151;47.824;12.092;2023-06-24T04:26:31;97195.81;;;18.69;69.40
16094;BME280;8151;47.824;12.092;2023-06-24T04:29:01;97191.91;;;18.72;69.45
16094;BME280;8151;47.824;12.092;2023-06-24T04:31:29;97193.75;;;18.72;69.50
16094;BME280;8151;47.824;12.092;2023-06-24T04:33:57;97189.41;;;18.70;69.56
16094;BME280;8151;47.824;12.092;2023-06-24T04:36:26;97191.91;;;18.72;69.61
16094;BME280;8151;47.824;12.092;2023-06-24T04:38:54;97192.31;;;18.76;69.45
16094;BME280;8151;47.824;12.092;2023-06-24T04:41:23;97193.22;;;18.83;69.25
16094;BME280;8151;47.824;12.092;2023-06-24T04:43:52;97201.25;;;18.83;69.22
16094;BME280;8151;47.824;12.092;2023-06-24T04:46:22;97196.09;;;18.81;69.26
16094;BME280;8151;47.824;12.092;2023-06-24T04:48:50;97192.31;;;18.76;69.34
16094;BME280;8151;47.824;12.092;2023-06-24T04:51:19;97194.78;;;18.70;69.43
16094;BME280;8151;47.824;12.092;2023-06-24T04:53:49;97200.75;;;18.73;69.46
16094;BME280;8151;47.824;12.092;2023-06-24T04:56:17;97198.50;;;18.76;69.50
16094;BME280;8151;47.824;12.092;2023-06-24T04:58:46;97201.81;;;18.78;69.42
16094;BME280;8151;47.824;12.092;2023-06-24T05:01:14;97196.28;;;18.80;69.54
16094;BME280;8151;47.824;12.092;2023-06-24T05:03:44;97195.06;;;18.82;69.40
16094;BME280;8151;47.824;12.092;2023-06-24T05:06:13;97196.91;;;18.82;69.42
16094;BME280;8151;47.824;12.092;2023-06-24T05:08:41;97201.66;;;18.80;69.58
16094;BME280;8151;47.824;12.092;2023-06-24T05:11:09;97199.59;;;18.82;69.61
16094;BME280;8151;47.824;12.092;2023-06-24T05:13:39;97198.13;;;18.79;69.68
16094;BME280;8151;47.824;12.092;2023-06-24T05:16:08;97207.25;;;18.85;69.67
16094;BME280;8151;47.824;12.092;2023-06-24T05:18:36;97204.59;;;18.92;69.67
16094;BME280;8151;47.824;12.092;2023-06-24T05:21:06;97200.69;;;18.94;69.33
16094;BME280;8151;47.824;12.092;2023-06-24T05:23:34;97204.63;;;18.98;69.23
16094;BME280;8151;47.824;12.092;2023-06-24T05:26:03;97214.31;;;18.99;69.21
16094;BME280;8151;47.824;12.092;2023-06-24T05:28:31;97207.94;;;19.00;69.27
16094;BME280;8151;47.824;12.092;2023-06-24T05:31:00;97217.19;;;18.98;69.48
16094;BME280;8151;47.824;12.092;2023-06-24T05:33:28;97212.06;;;18.96;69.48
16094;BME280;8151;47.824;12.092;2023-06-24T05:35:56;97216.81;;;19.01;69.43
16094;BME280;8151;47.824;12.092;2023-06-24T05:38:26;97219.69;;;18.99;69.31
16094;BME280;8151;47.824;12.092;2023-06-24T05:40:57;97222.97;;;19.01;69.17
16094;BME280;8151;47.824;12.092;2023-06-24T05:43:27;97220.16;;;19.10;69.00
16094;BME280;8151;47.824;12.092;2023-06-24T05:45:55;97224.47;;;19.17;68.41
16094;BME280;8151;47.824;12.092;2023-06-24T05:48:24;97226.34;;;19.17;68.34
16094;BME280;8151;47.824;12.092;2023-06-24T05:50:52;97224.91;;;19.21;68.17
16094;BME280;8151;47.824;12.092;2023-06-24T05:53:21;97217.28;;;19.24;67.88
16094;BME280;8151;47.824;12.092;2023-06-24T05:55:50;97216.06;;;19.27;67.82
16094;BME280;8151;47.824;12.092;2023-06-24T05:58:19;97217.72;;;19.28;67.64
16094;BME280;8151;47.824;12.092;2023-06-24T06:00:48;97217.94;;;19.33;67.53
16094;BME280;8151;47.824;12.092;2023-06-24T06:03:16;97217.75;;;19.41;67.61
16094;BME280;8151;47.824;12.092;2023-06-24T06:05:45;97228.91;;;19.52;67.22
16094;BME280;8151;47.824;12.092;2023-06-24T06:08:13;97222.50;;;19.59;67.01
16094;BME280;8151;47.824;12.092;2023-06-24T06:10:42;97215.69;;;19.63;66.69
16094;BME280;8151;47.824;12.092;2023-06-24T06:13:20;97221.31;;;19.62;66.82
16094;BME280;8151;47.824;12.092;2023-06-24T06:15:48;97219.84;;;19.59;66.89
16094;BME280;8151;47.824;12.092;2023-06-24T06:18:17;97214.88;;;19.56;66.64
16094;BME280;8151;47.824;12.092;2023-06-24T06:20:45;97226.84;;;19.54;66.76
16094;BME280;8151;47.824;12.092;2023-06-24T06:23:14;97225.00;;;19.54;66.80
16094;BME280;8151;47.824;12.092;2023-06-24T06:25:43;97224.38;;;19.59;66.96
16094;BME280;8151;47.824;12.092;2023-06-24T06:28:15;97227.50;;;19.62;66.67
16094;BME280;8151;47.824;12.092;2023-06-24T06:30:45;97216.94;;;19.67;66.25
16094;BME280;8151;47.824;12.092;2023-06-24T06:33:13;97217.78;;;19.68;66.21
16094;BME280;8151;47.824;12.092;2023-06-24T06:35:42;97214.88;;;19.70;65.99
16094;BME280;8151;47.824;12.092;2023-06-24T06:38:10;97218.44;;;19.77;65.75
16094;BME280;8151;47.824;12.092;2023-06-24T06:40:39;97215.53;;;19.85;65.37
16094;BME280;8151;47.824;12.092;2023-06-24T06:43:07;97217.81;;;19.88;65.41
16094;BME280;8151;47.824;12.092;2023-06-24T06:45:36;97219.06;;;19.92;65.59
16094;BME280;8151;47.824;12.092;2023-06-24T06:48:06;97222.81;;;19.91;65.31
16094;BME280;8151;47.824;12.092;2023-06-24T06:50:35;97215.78;;;19.97;65.09
16094;BME280;8151;47.824;12.092;2023-06-24T06:53:04;97221.94;;;20.04;64.71
16094;BME280;8151;47.824;12.092;2023-06-24T06:55:32;97223.63;;;20.05;64.51
16094;BME280;8151;47.824;12.092;2023-06-24T06:58:01;97226.09;;;20.06;64.35
16094;BME280;8151;47.824;12.092;2023-06-24T07:00:30;97226.28;;;20.12;64.43
16094;BME280;8151;47.824;12.092;2023-06-24T07:02:59;97234.16;;;20.13;64.34
16094;BME280;8151;47.824;12.092;2023-06-24T07:05:28;97225.44;;;20.18;64.15
16094;BME280;8151;47.824;12.092;2023-06-24T07:07:57;97232.06;;;20.22;63.92
16094;BME280;8151;47.824;12.092;2023-06-24T07:10:25;97234.13;;;20.26;63.47
16094;BME280;8151;47.824;12.092;2023-06-24T07:12:54;97238.25;;;20.29;63.13
16094;BME280;8151;47.824;12.092;2023-06-24T07:15:25;97241.56;;;20.31;62.82
16094;BME280;8151;47.824;12.092;2023-06-24T07:17:54;97246.72;;;20.39;62.96
16094;BME280;8151;47.824;12.092;2023-06-24T07:20:22;97246.72;;;20.46;63.23
16094;BME280;8151;47.824;12.092;2023-06-24T07:22:52;97242.38;;;20.52;62.88
16094;BME280;8151;47.824;12.092;2023-06-24T07:25:21;97245.88;;;20.59;62.55
16094;BME280;8151;47.824;12.092;2023-06-24T07:27:49;97244.22;;;20.64;62.34
16094;BME280;8151;47.824;12.092;2023-06-24T07:30:18;97242.78;;;20.69;62.18
16094;BME280;8151;47.824;12.092;2023-06-24T07:32:47;97246.72;;;20.73;62.09
16094;BME280;8151;47.824;12.092;2023-06-24T07:35:16;97247.50;;;20.80;62.29
16094;BME280;8151;47.824;12.092;2023-06-24T07:37:46;97251.59;;;20.89;62.02
16094;BME280;8151;47.824;12.092;2023-06-24T07:40:16;97238.78;;;20.91;61.78
16094;BME280;8151;47.824;12.092;2023-06-24T07:42:44;97238.34;;;20.94;61.61
16094;BME280;8151;47.824;12.092;2023-06-24T07:45:13;97239.38;;;21.00;61.65
16094;BME280;8151;47.824;12.092;2023-06-24T07:47:41;97237.47;;;21.07;61.51
16094;BME280;8151;47.824;12.092;2023-06-24T07:50:10;97239.09;;;21.15;61.43
16094;BME280;8151;47.824;12.092;2023-06-24T07:52:38;97249.00;;;21.21;61.21
16094;BME280;8151;47.824;12.092;2023-06-24T07:55:08;97235.50;;;21.28;60.88
16094;BME280;8151;47.824;12.092;2023-06-24T07:57:37;97240.25;;;21.32;60.74
16094;BME280;8151;47.824;12.092;2023-06-24T08:00:07;97233.63;;;21.35;60.99
16094;BME280;8151;47.824;12.092;2023-06-24T08:02:38;97234.22;;;21.37;61.04
16094;BME280;8151;47.824;12.092;2023-06-24T08:05:07;97241.03;;;21.39;60.67
16094;BME280;8151;47.824;12.092;2023-06-24T08:07:36;97234.44;;;21.35;60.51
16094;BME280;8151;47.824;12.092;2023-06-24T08:10:08;97238.75;;;21.36;60.38
16094;BME280;8151;47.824;12.092;2023-06-24T08:12:41;97234.84;;;21.39;60.30
16094;BME280;8151;47.824;12.092;2023-06-24T08:15:10;97231.50;;;21.43;60.03
16094;BME280;8151;47.824;12.092;2023-06-24T08:17:38;97235.66;;;21.46;59.82
16094;BME280;8151;47.824;12.092;2023-06-24T08:20:10;97229.81;;;21.49;60.05
16094;BME280;8151;47.824;12.092;2023-06-24T08:22:39;97240.78;;;21.54;60.07
16094;BME280;8151;47.824;12.092;2023-06-24T08:25:08;97230.22;;;21.53;60.11
16094;BME280;8151;47.824;12.092;2023-06-24T08:27:36;97237.69;;;21.51;60.11
16094;BME280;8151;47.824;12.092;2023-06-24T08:30:08;97231.72;;;21.49;60.18
16094;BME280;8151;47.824;12.092;2023-06-24T08:32:37;97224.84;;;21.53;60.20
16094;BME280;8151;47.824;12.092;2023-06-24T08:35:08;97224.34;;;21.62;60.08
16094;BME280;8151;47.824;12.092;2023-06-24T08:37:37;97228.25;;;21.73;59.94
16094;BME280;8151;47.824;12.092;2023-06-24T08:40:06;97228.72;;;21.89;59.74
16094;BME280;8151;47.824;12.092;2023-06-24T08:42:36;97223.09;;;21.97;59.47
16094;BME280;8151;47.824;12.092;2023-06-24T08:45:07;97217.84;;;22.02;58.78
16094;BME280;8151;47.824;12.092;2023-06-24T08:47:35;97222.59;;;22.07;57.54
16094;BME280;8151;47.824;12.092;2023-06-24T08:50:08;97220.50;;;22.09;56.25
16094;BME280;8151;47.824;12.092;2023-06-24T08:52:43;97217.19;;;22.07;55.63
16094;BME280;8151;47.824;12.092;2023-06-24T08:55:16;97214.03;;;22.10;55.17
16094;BME280;8151;47.824;12.092;2023-06-24T08:57:46;97229.72;;;22.19;54.79
16094;BME280;8151;47.824;12.092;2023-06-24T09:00:17;97227.38;;;22.30;54.01
16094;BME280;8151;47.824;12.092;2023-06-24T09:02:55;97223.72;;;22.42;53.66
16094;BME280;8151;47.824;12.092;2023-06-24T09:05:24;97219.09;;;22.50;53.02
16094;BME280;8151;47.824;12.092;2023-06-24T09:07:53;97214.22;;;22.58;52.22
16094;BME280;8151;47.824;12.092;2023-06-24T09:10:31;97218.34;;;22.61;51.06
16094;BME280;8151;47.824;12.092;2023-06-24T09:13:00;97227.28;;;22.61;51.58
16094;BME280;8151;47.824;12.092;2023-06-24T09:15:34;97216.84;;;22.65;51.39
16094;BME280;8151;47.824;12.092;2023-06-24T09:18:04;97209.53;;;22.72;50.97
16094;BME280;8151;47.824;12.092;2023-06-24T09:20:33;97214.53;;;22.87;50.09
16094;BME280;8151;47.824;12.092;2023-06-24T09:23:07;97210.25;;;22.98;49.52
16094;BME280;8151;47.824;12.092;2023-06-24T09:25:36;97211.06;;;22.98;49.38
16094;BME280;8151;47.824;12.092;2023-06-24T09:28:13;97208.84;;;22.95;49.05
16094;BME280;8151;47.824;12.092;2023-06-24T09:30:43;97203.44;;;22.95;48.98
16094;BME280;8151;47.824;12.092;2023-06-24T09:33:11;97210.47;;;22.96;49.04
16094;BME280;8151;47.824;12.092;2023-06-24T09:35:42;97197.94;;;23.02;48.47
16094;BME280;8151;47.824;12.092;2023-06-24T09:38:12;97211.97;;;23.11;47.99
16094;BME280;8151;47.824;12.092;2023-06-24T09:40:41;97210.41;;;23.22;47.58
16094;BME280;8151;47.824;12.092;2023-06-24T09:43:20;97197.75;;;23.34;47.00
16094;BME280;8151;47.824;12.092;2023-06-24T09:45:50;97196.56;;;23.60;46.50
16094;BME280;8151;47.824;12.092;2023-06-24T09:48:19;97196.28;;;23.80;46.10
16094;BME280;8151;47.824;12.092;2023-06-24T09:50:47;97196.41;;;23.97;45.56
16094;BME280;8151;47.824;12.092;2023-06-24T09:53:17;97192.41;;;24.00;45.40
16094;BME280;8151;47.824;12.092;2023-06-24T09:55:46;97185.84;;;24.07;45.30
16094;BME280;8151;47.824;12.092;2023-06-24T09:58:16;97192.19;;;24.25;45.06
16094;BME280;8151;47.824;12.092;2023-06-24T10:00:46;97181.28;;;24.31;45.03
16094;BME280;8151;47.824;12.092;2023-06-24T10:03:16;97181.28;;;24.31;44.65
16094;BME280;8151;47.824;12.092;2023-06-24T10:05:46;97196.66;;;24.19;44.78
16094;BME280;8151;47.824;12.092;2023-06-24T10:08:14;97183.72;;;24.09;44.65
16094;BME280;8151;47.824;12.092;2023-06-24T10:10:43;97176.78;;;24.02;44.56
16094;BME280;8151;47.824;12.092;2023-06-24T10:13:20;97184.88;;;23.90;44.24
16094;BME280;8151;47.824;12.092;2023-06-24T10:15:49;97176.09;;;23.83;44.15
16094;BME280;8151;47.824;12.092;2023-06-24T10:18:35;97172.31;;;23.84;43.82
16094;BME280;8151;47.824;12.092;2023-06-24T10:21:05;97166.78;;;23.90;44.01
16094;BME280;8151;47.824;12.092;2023-06-24T10:23:39;97167.72;;;23.96;43.94
16094;BME280;8151;47.824;12.092;2023-06-24T10:26:09;97169.25;;;24.04;43.47
16094;BME280;8151;47.824;12.092;2023-06-24T10:29:12;97174.56;;;24.10;42.75
16094;BME280;8151;47.824;12.092;2023-06-24T10:31:51;97170.34;;;24.14;43.53
16094;BME280;8151;47.824;12.092;2023-06-24T10:34:27;97175.75;;;24.26;43.22
16094;BME280;8151;47.824;12.092;2023-06-24T10:36:58;97169.00;;;24.41;43.33
16094;BME280;8151;47.824;12.092;2023-06-24T10:39:37;97171.28;;;24.55;42.88
16094;BME280;8151;47.824;12.092;2023-06-24T10:42:36;97171.94;;;24.74;42.55
16094;BME280;8151;47.824;12.092;2023-06-24T10:45:23;97160.25;;;24.86;42.13
16094;BME280;8151;47.824;12.092;2023-06-24T10:47:51;97164.13;;;24.90;42.51
16094;BME280;8151;47.824;12.092;2023-06-24T10:50:25;97160.81;;;25.00;41.94
16094;BME280;8151;47.824;12.092;2023-06-24T10:52:53;97152.00;;;25.21;41.81
16094;BME280;8151;47.824;12.092;2023-06-24T10:55:24;97139.97;;;25.29;42.01
16094;BME280;8151;47.824;12.092;2023-06-24T10:57:53;97143.72;;;25.40;42.08
16094;BME280;8151;47.824;12.092;2023-06-24T11:00:22;97136.41;;;25.57;41.71
16094;BME280;8151;47.824;12.092;2023-06-24T11:02:50;97136.66;;;25.72;41.28
16094;BME280;8151;47.824;12.092;2023-06-24T11:05:19;97130.41;;;25.89;41.00
16094;BME280;8151;47.824;12.092;2023-06-24T11:07:49;97127.97;;;26.04;40.56
16094;BME280;8151;47.824;12.092;2023-06-24T11:10:17;97134.63;;;26.13;40.22
16094;BME280;8151;47.824;12.092;2023-06-24T11:12:46;97129.56;;;26.22;39.89
16094;BME280;8151;47.824;12.092;2023-06-24T11:15:14;97123.56;;;26.20;39.73
16094;BME280;8151;47.824;12.092;2023-06-24T11:17:43;97118.97;;;26.21;39.39
16094;BME280;8151;47.824;12.092;2023-06-24T11:20:13;97117.81;;;26.17;39.20
16094;BME280;8151;47.824;12.092;2023-06-24T11:22:42;97114.06;;;26.18;39.20
16094;BME280;8151;47.824;12.092;2023-06-24T11:25:19;97106.28;;;26.26;38.98
16094;BME280;8151;47.824;12.092;2023-06-24T11:27:50;97101.72;;;26.49;39.15
16094;BME280;8151;47.824;12.092;2023-06-24T11:30:19;97100.03;;;26.65;39.11
16094;BME280;8151;47.824;12.092;2023-06-24T11:32:48;97092.53;;;26.72;38.69
16094;BME280;8151;47.824;12.092;2023-06-24T11:35:17;97097.25;;;26.60;38.59
16094;BME280;8151;47.824;12.092;2023-06-24T11:37:46;97095.41;;;26.43;38.11
16094;BME280;8151;47.824;12.092;2023-06-24T11:40:19;97085.84;;;26.19;38.71
16094;BME280;8151;47.824;12.092;2023-06-24T11:42:48;97085.56;;;25.98;38.78
16094;BME280;8151;47.824;12.092;2023-06-24T11:45:21;97079.06;;;25.82;39.06
16094;BME280;8151;47.824;12.092;2023-06-24T11:47:49;97084.06;;;25.90;39.24
16094;BME280;8151;47.824;12.092;2023-06-24T11:50:25;97075.63;;;26.26;38.49
16094;BME280;8151;47.824;12.092;2023-06-24T11:52:54;97073.31;;;26.57;38.10
16094;BME280;8151;47.824;12.092;2023-06-24T11:55:25;97075.84;;;26.63;38.02
16094;BME280;8151;47.824;12.092;2023-06-24T11:57:55;97064.91;;;26.80;37.95
16094;BME280;8151;47.824;12.092;2023-06-24T12:00:25;97059.56;;;26.90;37.65
16094;BME280;8151;47.824;12.092;2023-06-24T12:02:54;97064.03;;;27.02;36.99
16094;BME280;8151;47.824;12.092;2023-06-24T12:05:24;97057.09;;;26.84;36.86
16094;BME280;8151;47.824;12.092;2023-06-24T12:07:58;97043.81;;;26.60;37.48
16094;BME280;8151;47.824;12.092;2023-06-24T12:10:28;97044.94;;;26.64;37.57
16094;BME280;8151;47.824;12.092;2023-06-24T12:13:00;97053.75;;;26.77;37.27
16094;BME280;8151;47.824;12.092;2023-06-24T12:15:29;97046.16;;;27.06;36.79
16094;BME280;8151;47.824;12.092;2023-06-24T12:17:57;97044.84;;;27.36;36.36
16094;BME280;8151;47.824;12.092;2023-06-24T12:20:26;97043.31;;;27.50;35.86
16094;BME280;8151;47.824;12.092;2023-06-24T12:22:58;97040.06;;;27.53;35.98
16094;BME280;8151;47.824;12.092;2023-06-24T12:25:28;97035.50;;;27.64;36.11
16094;BME280;8151;47.824;12.092;2023-06-24T12:27:57;97037.22;;;27.75;36.09
16094;BME280;8151;47.824;12.092;2023-06-24T12:30:27;97031.53;;;27.82;36.44
16094;BME280;8151;47.824;12.092;2023-06-24T12:32:56;97031.41;;;27.94;36.02
16094;BME280;8151;47.824;12.092;2023-06-24T12:35:25;97033.63;;;28.07;35.56
16094;BME280;8151;47.824;12.092;2023-06-24T12:37:53;97022.47;;;28.08;35.58
16094;BME280;8151;47.824;12.092;2023-06-24T12:40:22;97024.13;;;28.15;35.35
16094;BME280;8151;47.824;12.092;2023-06-24T12:42:52;97014.09;;;28.20;34.67
16094;BME280;8151;47.824;12.092;2023-06-24T12:45:20;97018.47;;;28.26;34.81
16094;BME280;8151;47.824;12.092;2023-06-24T12:47:49;97010.03;;;28.28;34.13
16094;BME280;8151;47.824;12.092;2023-06-24T12:50:19;97010.31;;;28.21;34.48
16094;BME280;8151;47.824;12.092;2023-06-24T12:52:47;97013.25;;;28.10;34.75
16094;BME280;8151;47.824;12.092;2023-06-24T12:55:17;97015.88;;;27.94;35.25
16094;BME280;8151;47.824;12.092;2023-06-24T12:57:46;97008.28;;;27.96;34.81
16094;BME280;8151;47.824;12.092;2023-06-24T13:00:19;97006.41;;;28.07;34.16
16094;BME280;8151;47.824;12.092;2023-06-24T13:02:48;97005.63;;;28.17;33.72
16094;BME280;8151;47.824;12.092;2023-06-24T13:05:17;97002.44;;;28.25;33.76
16094;BME280;8151;47.824;12.092;2023-06-24T13:07:52;96995.91;;;28.36;33.01
16094;BME280;8151;47.824;12.092;2023-06-24T13:10:20;97001.69;;;28.50;33.24
16094;BME280;8151;47.824;12.092;2023-06-24T13:12:49;97000.94;;;28.65;33.13
16094;BME280;8151;47.824;12.092;2023-06-24T13:15:20;96987.88;;;28.67;32.79
16094;BME280;8151;47.824;12.092;2023-06-24T13:17:48;96996.06;;;28.77;32.58